Terminal Aerodrome Forecast
Issued by NWS

Home | Current Version | Previous Version | Text Only | Print | Product List | Glossary On
Versions: 1 2 3 4 5 6 7 8 9 10 11 12 13 14 15 16 17 18 19 20 21
000
FTUS44 KCRP 190300 AAB
TAFALI
TAF AMD
KALI 190332Z 1904/1924 06006KT 4SM BR OVC007
      TEMPO 1904/1908 2SM -SHRA BR OVC003
     FM190800 18005KT 5SM BR VCSH BKN007 OVC012 PROB30 1913/1915 2SM
      -TSRA BR BKN012CB
     FM191500 33007KT 5SM BR VCTS SCT007 BKN017CB
     FM191800 25012KT P6SM BKN035=

USA.gov is the U.S. government's official web portal to all federal, state and local government web resources and services.